What a difference a day makes. On Sunday morning, less than 24 hours after cold rain sent shivers through Manhattan, nearly 20,000 runners enjoyed lovely racing weather at the 2015 United Airlines NYC Half. As participants made their way from Central Park to Lower Manhattan, passing through Harlem, Times Square, and other landmarks along the way, temperatures remained in the 40s with light winds from the north and west.

The weather certainly suited Molly Huddle, who became the first American winner in the event’s 10-year history. Huddle finished in a personal-best 1:08:31, pulling off an upset victory over Joyce Chepkirui of Kenya, who took second with a time of 1:08:42. On the men’s side, it was Kenya’s Leonard Korir taking top honors, outkicking his countryman Stephen Sambu to win by one second with a time of 1:01:06.

Team RRR was lead by Thomas Noonan, 1:26:31, and Carol Guzinski, 1:38:18. We had a total of 29 runners, a great showing for a great race!

Great job by all Team RRR runners!

List by Team: RRR — Rockland RR
Distance: 13.1 miles, 21.1 kilometers
Date/Time: March 15, 2015, 7:30 AM
Location: Central Park to Downtown, NYC
Weather: 42 degrees, 60% humidity, wind 10-18 mph

Last Name First Name Sex/Age Overall
Place
AgePlace Net Time Pace/Mile AG %
Noonan Thomas M41 505 64 1:26:31 06:37 71.87 %
Altieri John M36 551 82 1:27:16 06:40 68.71 %
Guzinski Carol F48 1827 21 1:38:18 07:31 74.09 %
Karp Matthew M52 2538 105 1:41:42 07:46 66.99 %
DiMarino Laura F48 2623 45 1:42:07 07:48 71.32 %
Rhodes John M34 3202 577 1:44:29 07:59 56.90 %
Nusblat Michael M62 3565 29 1:45:50 08:05 70.48 %
Aron Narcis M66 3897 7 1:46:54 08:10 72.54 %
militano theresa F31 5627 393 1:52:18 08:35 58.69 %
Lowenwirth Kristen F25 5693 503 1:52:30 08:36 58.52 %
Conover Deirdre F29 5700 504 1:52:32 08:36 58.51 %
McEvoy Christopher M49 7046 534 1:56:09 08:52 57.16 %
McQuade Angela F47 8282 196 1:59:00 09:06 60.54 %
Egger Wolfgang M64 8843 87 2:00:18 09:11 63.21 %
camilo hector M32 9159 1214 2:01:12 09:16 48.87 %
calle kristen F32 10115 889 2:03:59 09:28 53.23 %
Rohrig Stephanie F26 10810 1137 2:06:03 09:38 52.23 %
Rohrig James M59 10818 214 2:06:04 09:38 57.53 %
Wideman Nichola F43 12059 615 2:09:54 09:55 53.47 %
Garrabrant Jaimie Lynne F38 12705 857 2:11:58 10:05 50.99 %
Wolff Mary Pat F58 13611 128 2:15:08 10:19 61.23 %
vokes heather F37 13922 969 2:16:21 10:25 49.12 %
Kutner Fiume Patricia F59 14635 148 2:19:26 10:39 60.18 %
Paer Barbara F60 14746 63 2:19:59 10:42 60.78 %
Gray Lauren F32 14754 1497 2:20:01 10:42 47.13 %
Argenziano Maria F48 15986 616 2:26:15 11:10 49.80 %
Mair Laurie F39 16441 1241 2:28:50 11:22 45.44 %
Stern Domingo M69 18444 67 2:49:07 12:55 47.26 %
Paer Andrew M60 18921 207 3:00:17 13:46 40.60 %

Add Comment

facebook
twitter
youtube
instagram
flickr